createdAt,value
2023-05-10T00:00:34.360Z,15.49
2023-05-10T00:03:37.174Z,15.42
2023-05-10T00:06:40.132Z,15.31
2023-05-10T00:09:42.849Z,15.21
2023-05-10T00:12:45.612Z,15.17
2023-05-10T00:15:49.694Z,15.11
2023-05-10T00:18:52.481Z,15.06
2023-05-10T00:21:55.183Z,15.00
2023-05-10T00:24:57.808Z,15.02
2023-05-10T00:28:02.271Z,15.00
2023-05-10T00:31:06.476Z,14.95
2023-05-10T00:34:09.239Z,14.91
2023-05-10T00:37:11.928Z,14.96
2023-05-10T00:40:15.454Z,14.88
2023-05-10T00:43:18.471Z,14.86
2023-05-10T00:46:22.957Z,14.87
2023-05-10T00:49:25.724Z,14.81
2023-05-10T00:52:28.627Z,14.81
2023-05-10T00:55:31.972Z,14.76
2023-05-10T00:58:34.785Z,14.76
2023-05-10T01:01:39.929Z,14.78
2023-05-10T01:04:42.886Z,14.72
2023-05-10T01:07:45.681Z,14.68
2023-05-10T01:10:50.110Z,14.64
2023-05-10T01:13:57.406Z,14.57
2023-05-10T01:17:03.221Z,14.57
2023-05-10T01:20:09.025Z,14.52
2023-05-10T01:23:30.611Z,14.45
2023-05-10T01:27:03.999Z,14.39
2023-05-10T01:30:37.527Z,14.45
2023-05-10T01:33:48.327Z,14.43
2023-05-10T01:36:55.481Z,14.43
2023-05-10T01:40:04.921Z,14.40
2023-05-10T01:43:28.483Z,14.31
2023-05-10T01:46:36.904Z,14.32
2023-05-10T01:49:45.424Z,14.29
2023-05-10T01:52:53.998Z,14.35
2023-05-10T01:55:58.271Z,14.37
2023-05-10T01:59:03.036Z,14.32
2023-05-10T02:02:07.580Z,14.31
2023-05-10T02:05:14.887Z,14.25
2023-05-10T02:08:20.225Z,14.24
2023-05-10T02:11:23.737Z,14.20
2023-05-10T02:14:28.500Z,14.19
2023-05-10T02:17:33.774Z,14.17
2023-05-10T02:20:39.484Z,14.09
2023-05-10T02:23:42.624Z,14.10
2023-05-10T02:26:47.298Z,14.12
2023-05-10T02:29:51.959Z,14.18
2023-05-10T02:32:55.422Z,14.16
2023-05-10T02:36:00.299Z,14.13
2023-05-10T02:39:04.390Z,14.12
2023-05-10T02:42:07.892Z,14.13
2023-05-10T02:45:14.606Z,14.15
2023-05-10T02:48:18.057Z,14.18
2023-05-10T02:51:27.132Z,14.21
2023-05-10T02:54:34.536Z,14.23
2023-05-10T02:57:42.949Z,14.20
2023-05-10T03:00:46.226Z,14.19
2023-05-10T03:03:48.950Z,14.17
2023-05-10T03:06:53.116Z,14.16
2023-05-10T03:09:55.859Z,14.15
2023-05-10T03:13:08.086Z,14.14
2023-05-10T03:16:16.734Z,14.20
2023-05-10T03:19:26.263Z,14.23
2023-05-10T03:22:34.274Z,14.24
2023-05-10T03:25:37.216Z,14.23
2023-05-10T03:28:41.539Z,14.25
2023-05-10T03:31:44.564Z,14.24
2023-05-10T03:34:47.267Z,14.27
2023-05-10T03:37:51.494Z,14.31
2023-05-10T03:40:54.295Z,14.27
2023-05-10T03:43:56.972Z,14.23
2023-05-10T03:46:59.731Z,14.20
2023-05-10T03:50:03.426Z,14.21
2023-05-10T03:53:07.696Z,14.22
2023-05-10T03:56:10.418Z,14.17
2023-05-10T03:59:13.153Z,14.15
2023-05-10T04:02:16.091Z,14.19
2023-05-10T04:05:18.839Z,14.16
2023-05-10T04:08:23.001Z,14.10
2023-05-10T04:11:25.805Z,14.11
2023-05-10T04:14:28.636Z,14.11
2023-05-10T04:17:32.216Z,14.11
2023-05-10T04:20:35.237Z,14.10
2023-05-10T04:23:39.291Z,14.15
2023-05-10T04:26:41.966Z,14.15
2023-05-10T04:29:45.305Z,14.20
2023-05-10T04:32:48.082Z,14.25
2023-05-10T04:35:50.849Z,14.26
2023-05-10T04:38:54.904Z,14.25
2023-05-10T04:41:57.764Z,14.26
2023-05-10T04:45:00.380Z,14.29
2023-05-10T04:48:03.184Z,14.32
2023-05-10T04:51:07.425Z,14.34
2023-05-10T04:54:11.462Z,14.31
2023-05-10T04:57:14.188Z,14.34
2023-05-10T05:00:18.155Z,14.38
2023-05-10T05:03:21.097Z,14.42
2023-05-10T05:06:25.708Z,14.48
2023-05-10T05:09:29.810Z,14.55
2023-05-10T05:12:32.778Z,14.55
2023-05-10T05:15:35.614Z,14.58
2023-05-10T05:18:38.408Z,14.65
2023-05-10T05:21:41.974Z,14.70
2023-05-10T05:24:46.412Z,14.74
2023-05-10T05:27:49.204Z,14.80
2023-05-10T05:30:51.894Z,14.84
2023-05-10T05:33:54.589Z,14.82
2023-05-10T05:36:57.350Z,14.84
2023-05-10T05:40:04.058Z,14.86
2023-05-10T05:43:06.768Z,14.89
2023-05-10T05:46:09.438Z,14.96
2023-05-10T05:49:13.224Z,14.99
2023-05-10T05:52:15.963Z,14.99
2023-05-10T05:55:20.167Z,15.04
2023-05-10T05:58:23.124Z,15.08
2023-05-10T06:01:25.794Z,15.06
2023-05-10T06:04:28.765Z,15.08
2023-05-10T06:07:31.507Z,15.13
2023-05-10T06:10:35.582Z,15.18
2023-05-10T06:13:38.305Z,15.17
2023-05-10T06:16:41.551Z,15.19
2023-05-10T06:19:44.323Z,15.20
2023-05-10T06:22:47.038Z,15.21
2023-05-10T06:25:51.135Z,15.23
2023-05-10T06:28:53.805Z,15.24
2023-05-10T06:31:56.561Z,15.23
2023-05-10T06:34:59.359Z,15.29
2023-05-10T06:38:02.035Z,15.26
2023-05-10T06:41:06.471Z,15.28
2023-05-10T06:44:09.515Z,15.33
2023-05-10T06:47:12.287Z,15.39
2023-05-10T06:50:15.016Z,15.46
2023-05-10T06:53:17.812Z,15.54
2023-05-10T06:56:22.435Z,15.59
2023-05-10T06:59:25.456Z,15.64
2023-05-10T07:02:28.401Z,15.69
2023-05-10T07:05:31.328Z,15.77
2023-05-10T07:08:34.319Z,15.76
2023-05-10T07:11:38.724Z,15.73
2023-05-10T07:14:41.550Z,15.85
2023-05-10T07:17:45.898Z,15.93
2023-05-10T07:20:48.919Z,15.93
2023-05-10T07:23:52.462Z,16.01
2023-05-10T07:26:56.576Z,16.01
2023-05-10T07:29:59.744Z,16.08
2023-05-10T07:33:02.477Z,16.07
2023-05-10T07:36:05.292Z,16.10
2023-05-10T07:39:08.413Z,16.16
2023-05-10T07:42:12.668Z,16.20
2023-05-10T07:45:16.091Z,16.18
2023-05-10T07:48:19.157Z,16.23
2023-05-10T07:51:22.099Z,16.26
2023-05-10T07:54:24.945Z,16.27
2023-05-10T07:57:29.171Z,16.32
2023-05-10T08:00:31.958Z,16.35
2023-05-10T08:03:34.921Z,16.33
2023-05-10T08:06:37.764Z,16.28
2023-05-10T08:09:40.570Z,16.31
2023-05-10T08:12:44.570Z,16.28
2023-05-10T08:15:47.832Z,16.23
2023-05-10T08:18:51.729Z,16.28
2023-05-10T08:21:56.382Z,16.28
2023-05-10T08:24:59.156Z,16.27
2023-05-10T08:28:03.215Z,16.28
2023-05-10T08:31:07.423Z,16.26
2023-05-10T08:34:10.311Z,16.24
2023-05-10T08:37:14.454Z,16.27
2023-05-10T08:40:17.576Z,16.27
2023-05-10T08:43:21.753Z,16.22
2023-05-10T08:46:25.274Z,16.36
2023-05-10T08:49:29.469Z,16.41
2023-05-10T08:52:34.943Z,16.48
2023-05-10T08:55:39.579Z,16.59
2023-05-10T08:58:43.911Z,16.60
2023-05-10T09:01:49.254Z,16.71
2023-05-10T09:04:52.680Z,16.73
2023-05-10T09:07:55.682Z,16.83
2023-05-10T09:10:58.626Z,16.93
2023-05-10T09:14:03.597Z,17.00
2023-05-10T09:17:06.895Z,17.08
2023-05-10T09:20:10.189Z,17.04
2023-05-10T09:23:13.141Z,17.05
2023-05-10T09:26:15.819Z,17.02
2023-05-10T09:29:20.590Z,17.04
2023-05-10T09:32:23.346Z,17.11
2023-05-10T09:35:29.778Z,17.15
2023-05-10T09:38:47.443Z,17.22
2023-05-10T09:41:50.398Z,17.20
2023-05-10T09:44:54.439Z,17.08
2023-05-10T09:47:57.589Z,16.92
2023-05-10T09:51:00.461Z,16.82
2023-05-10T09:54:13.828Z,16.75
2023-05-10T09:57:22.975Z,16.77
2023-05-10T10:00:28.291Z,16.82
2023-05-10T10:03:32.030Z,16.85
2023-05-10T10:06:39.432Z,16.76
2023-05-10T10:09:42.459Z,16.68
2023-05-10T10:12:46.043Z,16.58
2023-05-10T10:15:52.225Z,16.56
2023-05-10T10:18:55.254Z,16.61
2023-05-10T10:21:58.237Z,16.80
2023-05-10T10:25:01.680Z,16.90
2023-05-10T10:28:18.383Z,17.09
2023-05-10T10:31:31.016Z,17.15
2023-05-10T10:34:34.409Z,17.06
2023-05-10T10:37:46.245Z,17.10
2023-05-10T10:40:49.485Z,17.30
2023-05-10T10:44:35.871Z,17.49
2023-05-10T10:47:38.931Z,17.79
2023-05-10T10:50:47.924Z,17.88
2023-05-10T10:53:50.790Z,17.92
2023-05-10T10:57:14.882Z,17.92
2023-05-10T11:00:38.129Z,18.10
2023-05-10T11:03:41.072Z,18.24
2023-05-10T11:06:44.429Z,18.20
2023-05-10T11:09:48.741Z,18.12
2023-05-10T11:12:56.547Z,17.93
2023-05-10T11:16:11.352Z,17.78
2023-05-10T11:19:15.521Z,17.71
2023-05-10T11:22:19.203Z,17.66
2023-05-10T11:25:22.357Z,17.53
2023-05-10T11:28:25.322Z,17.47
2023-05-10T11:31:30.891Z,17.47
2023-05-10T11:34:34.991Z,17.71
2023-05-10T11:37:38.254Z,17.95
2023-05-10T11:40:42.664Z,18.10
2023-05-10T11:43:49.981Z,18.17
2023-05-10T11:46:54.143Z,18.10
2023-05-10T11:49:56.942Z,17.99
2023-05-10T11:53:00.664Z,17.83
2023-05-10T11:56:07.402Z,17.60
2023-05-10T11:59:10.368Z,17.49
2023-05-10T12:02:15.276Z,17.40
2023-05-10T12:05:18.827Z,17.35
2023-05-10T12:08:24.062Z,17.26
2023-05-10T12:11:28.081Z,17.22
2023-05-10T12:14:34.286Z,17.22
2023-05-10T12:17:40.747Z,17.22
2023-05-10T12:20:45.281Z,17.25
2023-05-10T12:23:49.054Z,17.37
2023-05-10T12:26:52.455Z,17.46
2023-05-10T12:29:55.743Z,17.47
2023-05-10T12:33:04.491Z,17.56
2023-05-10T12:36:07.966Z,17.55
2023-05-10T12:39:11.166Z,17.59
2023-05-10T12:42:14.166Z,17.63
2023-05-10T12:45:16.962Z,17.65
2023-05-10T12:48:21.487Z,17.71
2023-05-10T12:51:24.262Z,17.68
2023-05-10T12:54:27.031Z,17.70
2023-05-10T12:57:29.858Z,17.73
2023-05-10T13:00:32.572Z,17.64
2023-05-10T13:03:36.666Z,17.62
2023-05-10T13:06:39.385Z,17.62
2023-05-10T13:09:42.151Z,17.59
2023-05-10T13:12:44.861Z,17.49
2023-05-10T13:15:47.546Z,17.43
2023-05-10T13:18:51.846Z,17.36
2023-05-10T13:21:54.605Z,17.24
2023-05-10T13:24:57.308Z,17.19
2023-05-10T13:28:00.082Z,17.22
2023-05-10T13:31:02.830Z,17.32
2023-05-10T13:34:07.386Z,17.36
2023-05-10T13:37:10.353Z,17.32
2023-05-10T13:40:13.408Z,17.34
2023-05-10T13:43:16.286Z,17.37
2023-05-10T13:46:19.793Z,17.40
2023-05-10T13:49:23.965Z,17.41
2023-05-10T13:52:26.739Z,17.45
2023-05-10T13:55:29.704Z,17.40
2023-05-10T13:58:32.456Z,17.39
2023-05-10T14:01:35.336Z,17.38
2023-05-10T14:04:39.383Z,17.33
2023-05-10T14:07:42.169Z,17.36
2023-05-10T14:10:44.938Z,17.42
2023-05-10T14:13:47.857Z,17.48
2023-05-10T14:16:50.593Z,17.59
2023-05-10T14:19:55.001Z,17.65
2023-05-10T14:22:57.742Z,17.67
2023-05-10T14:26:00.581Z,17.68
2023-05-10T14:29:03.498Z,17.79
2023-05-10T14:32:06.793Z,17.75
2023-05-10T14:35:12.961Z,17.68
2023-05-10T14:38:16.733Z,17.72
2023-05-10T14:41:19.844Z,17.64
2023-05-10T14:44:22.620Z,17.71
2023-05-10T14:47:25.546Z,17.69
2023-05-10T14:50:36.054Z,17.67
2023-05-10T14:53:39.552Z,17.71
2023-05-10T14:56:42.730Z,17.82
2023-05-10T14:59:45.453Z,17.77
2023-05-10T15:02:49.225Z,17.73
2023-05-10T15:05:54.127Z,17.71
2023-05-10T15:08:56.957Z,17.75
2023-05-10T15:11:59.699Z,17.75
2023-05-10T15:15:02.417Z,17.76
2023-05-10T15:18:05.557Z,17.71
2023-05-10T15:21:09.940Z,17.63
2023-05-10T15:24:12.639Z,17.62
2023-05-10T15:27:15.325Z,17.58
2023-05-10T15:30:18.012Z,17.60
2023-05-10T15:33:20.641Z,17.63
2023-05-10T15:36:24.699Z,17.63
2023-05-10T15:39:27.379Z,17.64
2023-05-10T15:42:30.853Z,17.59
2023-05-10T15:45:35.234Z,17.57
2023-05-10T15:48:40.234Z,17.52
2023-05-10T15:51:44.236Z,17.55
2023-05-10T15:54:47.125Z,17.53
2023-05-10T15:57:50.372Z,17.53
2023-05-10T16:00:53.110Z,17.53
2023-05-10T16:03:55.923Z,17.54
2023-05-10T16:06:59.946Z,17.54
2023-05-10T16:10:04.086Z,17.49
2023-05-10T16:13:06.959Z,17.43
2023-05-10T16:16:09.847Z,17.37
2023-05-10T16:19:12.668Z,17.35
2023-05-10T16:22:16.997Z,17.26
2023-05-10T16:25:20.047Z,17.25
2023-05-10T16:28:22.941Z,17.20
2023-05-10T16:31:25.802Z,17.19
2023-05-10T16:34:28.793Z,17.06
2023-05-10T16:37:32.993Z,17.04
2023-05-10T16:40:35.755Z,17.00
2023-05-10T16:43:38.445Z,16.98
2023-05-10T16:46:41.121Z,17.00
2023-05-10T16:49:43.797Z,16.90
2023-05-10T16:52:47.946Z,16.93
2023-05-10T16:55:51.050Z,16.92
2023-05-10T16:58:54.055Z,16.89
2023-05-10T17:01:56.804Z,16.83
2023-05-10T17:04:59.603Z,16.72
2023-05-10T17:08:03.758Z,16.67
2023-05-10T17:11:06.591Z,16.67
2023-05-10T17:14:10.161Z,16.60
2023-05-10T17:17:12.985Z,16.54
2023-05-10T17:20:15.642Z,16.56
2023-05-10T17:23:19.714Z,16.61
2023-05-10T17:26:22.410Z,16.55
2023-05-10T17:29:25.048Z,16.47
2023-05-10T17:32:27.837Z,16.45
2023-05-10T17:35:31.545Z,16.41
2023-05-10T17:38:35.872Z,16.40
2023-05-10T17:41:38.549Z,16.36
2023-05-10T17:44:41.346Z,16.34
2023-05-10T17:47:44.156Z,16.26
2023-05-10T17:50:47.013Z,16.23
2023-05-10T17:53:51.048Z,16.16
2023-05-10T17:56:53.836Z,16.06
2023-05-10T17:59:56.596Z,15.99
2023-05-10T18:02:59.453Z,15.94
2023-05-10T18:06:02.359Z,15.93
2023-05-10T18:09:07.260Z,15.83
2023-05-10T18:12:10.036Z,15.72
2023-05-10T18:15:12.730Z,15.67
2023-05-10T18:18:15.802Z,15.56
2023-05-10T18:21:18.851Z,15.56
2023-05-10T18:24:30.456Z,15.54
2023-05-10T18:27:40.196Z,15.50
2023-05-10T18:30:42.959Z,15.42
2023-05-10T18:33:45.960Z,15.41
2023-05-10T18:36:48.775Z,15.43
2023-05-10T18:39:53.261Z,15.40
2023-05-10T18:42:56.091Z,15.39
2023-05-10T18:45:58.769Z,15.31
2023-05-10T18:49:02.590Z,15.28
2023-05-10T18:52:05.243Z,15.20
2023-05-10T18:55:10.195Z,15.17
2023-05-10T18:58:12.802Z,15.10
2023-05-10T19:01:15.519Z,15.05
2023-05-10T19:04:18.187Z,15.02
2023-05-10T19:07:20.830Z,15.02
2023-05-10T19:10:25.069Z,14.98
2023-05-10T19:13:28.854Z,14.98
2023-05-10T19:16:31.567Z,14.94
2023-05-10T19:19:35.319Z,14.88
2023-05-10T19:22:54.326Z,14.85
2023-05-10T19:26:02.420Z,14.76
2023-05-10T19:29:05.045Z,14.70
2023-05-10T19:32:07.642Z,14.67
2023-05-10T19:35:13.188Z,14.60
2023-05-10T19:38:16.308Z,14.54
2023-05-10T19:41:20.308Z,14.50
2023-05-10T19:44:23.088Z,14.48
2023-05-10T19:47:26.247Z,14.41
2023-05-10T19:50:28.914Z,14.35
2023-05-10T19:53:32.309Z,14.32
2023-05-10T19:56:36.407Z,14.33
2023-05-10T19:59:39.018Z,14.30
2023-05-10T20:02:41.605Z,14.32
2023-05-10T20:05:44.267Z,14.30
2023-05-10T20:08:46.917Z,14.26
2023-05-10T20:11:51.242Z,14.23
2023-05-10T20:14:53.869Z,14.17
2023-05-10T20:17:56.656Z,14.15
2023-05-10T20:21:00.660Z,14.16
2023-05-10T20:24:03.339Z,14.17
2023-05-10T20:27:07.605Z,14.20
2023-05-10T20:30:11.293Z,14.17
2023-05-10T20:33:15.539Z,14.13
2023-05-10T20:36:18.191Z,14.11
2023-05-10T20:39:20.759Z,14.09
2023-05-10T20:42:24.929Z,14.09
2023-05-10T20:45:27.593Z,14.08
2023-05-10T20:48:30.260Z,14.09
2023-05-10T20:51:33.335Z,14.08
2023-05-10T20:54:35.984Z,14.09
2023-05-10T20:57:40.115Z,14.07
2023-05-10T21:00:42.702Z,14.11
2023-05-10T21:03:45.423Z,14.15
2023-05-10T21:06:48.015Z,14.17
2023-05-10T21:09:50.630Z,14.15
2023-05-10T21:12:54.872Z,14.19
2023-05-10T21:15:58.206Z,14.22
2023-05-10T21:19:00.923Z,14.20
2023-05-10T21:22:03.648Z,14.18
2023-05-10T21:25:07.242Z,14.18
2023-05-10T21:28:11.513Z,14.20
2023-05-10T21:31:14.199Z,14.24
2023-05-10T21:34:17.918Z,14.21
2023-05-10T21:37:20.521Z,14.18
2023-05-10T21:40:23.957Z,14.18
2023-05-10T21:43:27.919Z,14.16
2023-05-10T21:46:30.957Z,14.19
2023-05-10T21:49:33.580Z,14.19
2023-05-10T21:52:36.243Z,14.16
2023-05-10T21:55:38.917Z,14.12
2023-05-10T21:58:42.929Z,14.10
2023-05-10T22:01:45.630Z,14.09
2023-05-10T22:04:48.451Z,14.03
2023-05-10T22:07:51.124Z,13.99
2023-05-10T22:10:53.728Z,13.98
2023-05-10T22:13:57.719Z,13.94
2023-05-10T22:17:00.439Z,13.94
2023-05-10T22:20:03.681Z,13.92
2023-05-10T22:23:06.654Z,13.90
2023-05-10T22:26:09.430Z,13.89
2023-05-10T22:29:13.461Z,13.84
2023-05-10T22:32:16.081Z,13.84
2023-05-10T22:35:18.687Z,13.79
2023-05-10T22:38:21.493Z,13.78
2023-05-10T22:41:24.090Z,13.73
2023-05-10T22:44:28.118Z,13.67
2023-05-10T22:47:30.815Z,13.68
2023-05-10T22:50:33.437Z,13.65
2023-05-10T22:53:36.100Z,13.61
2023-05-10T22:56:38.702Z,13.55
2023-05-10T22:59:43.353Z,13.54
2023-05-10T23:02:46.097Z,13.48
2023-05-10T23:05:48.776Z,13.49
2023-05-10T23:08:51.996Z,13.49
2023-05-10T23:11:54.759Z,13.44
2023-05-10T23:14:58.796Z,13.39
2023-05-10T23:18:01.551Z,13.37
2023-05-10T23:21:04.236Z,13.31
2023-05-10T23:24:08.443Z,13.22
2023-05-10T23:27:11.317Z,13.16
2023-05-10T23:30:15.650Z,13.18
2023-05-10T23:33:18.395Z,13.22
2023-05-10T23:36:21.028Z,13.19
2023-05-10T23:39:23.671Z,13.21
2023-05-10T23:42:26.295Z,13.21
2023-05-10T23:45:30.479Z,13.23
2023-05-10T23:48:33.103Z,13.22
2023-05-10T23:51:35.706Z,13.23
2023-05-10T23:54:38.329Z,13.27
2023-05-10T23:57:40.928Z,13.28
